^^
Datos históricos de la estación: Murcia-Puente Tocinos
Diario Informe para Noviembre 28, 2019 Unidades:  Ambas    Ingés   Métrico
Diario Semanal Mensual Anual
  Máxima: Mínima: Promedio:
Temperatura: 69.8 °F /  21 °C 49.6 °F /  9.8 °C 59.2 °F /  15.1 °C
Punto de rocio: 51.4 °F /  10.8 °C 42.3 °F /  5.7 °C 45.7 °F /  7.6 °C
Humedad: 76% 44% 62%
Velocidad viento: 6.2mph /  10km/h - 3.2mph /  5.1km/h
Racha viento: 12mph /  19.3km/h - -
Viento- - SSO
Presión: 30.1 in /  1017.8 hPa 29.9 in /  1013.7 hPa -
Precipitación: 0 in /  0.0 mm    
 
 
Tabla de datos para Noviembre 28, 2019
Hora Temperatura Punto de rocio Presión Viento Velocidad viento Racha viento Humedad Intensidad lluvia(por hora) Nubes
00:04 57 °F /  13.9 °C 43.7 °F /  6.5 °C 29.9in /  1014.0hPa Sur 2.7mph /  4.4km/h 4mph /  6.4km/h 61% 0in /  0.0mm
00:09 57 °F /  13.9 °C 44.1 °F /  6.7 °C 29.9in /  1014.0hPa Sur 2.4mph /  3.9km/h 3.1mph /  5km/h 61.8% 0in /  0.0mm
00:14 57 °F /  13.9 °C 43.9 °F /  6.6 °C 29.9in /  1014.0hPa Sur 1.7mph /  2.7km/h 3.5mph /  5.6km/h 61.6% 0in /  0.0mm
00:19 57 °F /  13.9 °C 44.1 °F /  6.7 °C 29.9in /  1014.0hPa Sur 1.4mph /  2.2km/h 4.6mph /  7.4km/h 61.8% 0in /  0.0mm
00:24 56.8 °F /  13.8 °C 44.1 °F /  6.7 °C 29.9in /  1014.0hPa SSO 2.1mph /  3.4km/h 5mph /  8km/h 62% 0in /  0.0mm
00:29 56.8 °F /  13.8 °C 44.2 °F /  6.8 °C 29.9in /  1014.0hPa Oeste 2.4mph /  3.9km/h 5mph /  8km/h 62.4% 0in /  0.0mm
00:34 56.5 °F /  13.6 °C 44.2 °F /  6.8 °C 29.9in /  1014.0hPa Oeste 2.1mph /  3.4km/h 4mph /  6.4km/h 63.3% 0in /  0.0mm
00:39 55.9 °F /  13.3 °C 44.1 °F /  6.7 °C 30in /  1014.2hPa ONO 2mph /  3.2km/h 4.6mph /  7.4km/h 64.3% 0in /  0.0mm
00:44 55.4 °F /  13 °C 44.1 °F /  6.7 °C 30in /  1014.2hPa Oeste 2.3mph /  3.7km/h 5mph /  8km/h 65.5% 0in /  0.0mm
00:49 55.2 °F /  12.9 °C 44.1 °F /  6.7 °C 30in /  1014.2hPa SO 2.4mph /  3.9km/h 5.2mph /  8.4km/h 66% 0in /  0.0mm
00:54 55.4 °F /  13 °C 44.2 °F /  6.8 °C 30in /  1014.2hPa SO 2.9mph /  4.6km/h 5mph /  8km/h 66% 0in /  0.0mm
00:59 55.6 °F /  13.1 °C 44.1 °F /  6.7 °C 29.9in /  1014.1hPa SO 3.1mph /  5km/h 5.2mph /  8.4km/h 65.2% 0in /  0.0mm
01:04 55.8 °F /  13.2 °C 44.1 °F /  6.7 °C 29.9in /  1014.1hPa OSO 3mph /  4.8km/h 5.8mph /  9.3km/h 64.6% 0in /  0.0mm
01:09 55.9 °F /  13.3 °C 43.9 °F /  6.6 °C 30in /  1014.2hPa SO 2.9mph /  4.7km/h 6mph /  9.7km/h 64% 0in /  0.0mm
01:14 55.9 °F /  13.3 °C 43.7 °F /  6.5 °C 30in /  1014.2hPa SO 3.4mph /  5.4km/h 6mph /  9.7km/h 63.1% 0in /  0.0mm
01:19 56.1 °F /  13.4 °C 44.1 °F /  6.7 °C 30in /  1014.2hPa Sur 3.6mph /  5.8km/h 5.8mph /  9.3km/h 64% 0in /  0.0mm
01:24 55.8 °F /  13.2 °C 43.7 °F /  6.5 °C 30in /  1014.2hPa SSE 3.1mph /  5km/h 6.2mph /  10km/h 64.1% 0in /  0.0mm
01:29 55.2 °F /  12.9 °C 43.3 °F /  6.3 °C 29.9in /  1014.1hPa Sur 2.9mph /  4.7km/h 6.9mph /  11.1km/h 64.3% 0in /  0.0mm
01:34 55.2 °F /  12.9 °C 43.2 °F /  6.2 °C 29.9in /  1014.1hPa Sur 3.9mph /  6.2km/h 7.4mph /  11.9km/h 64.1% 0in /  0.0mm
01:39 55 °F /  12.8 °C 43.2 °F /  6.2 °C 29.9in /  1014.1hPa SSO 4.3mph /  6.9km/h 8.1mph /  13km/h 64% 0in /  0.0mm
01:44 55 °F /  12.8 °C 43.2 °F /  6.2 °C 29.9in /  1014.0hPa Sur 4.6mph /  7.4km/h 8mph /  12.9km/h 64% 0in /  0.0mm
01:49 55 °F /  12.8 °C 43.2 °F /  6.2 °C 29.9in /  1014.0hPa Sur 4.7mph /  7.6km/h 7mph /  11.3km/h 64% 0in /  0.0mm
01:54 55 °F /  12.8 °C 43.2 °F /  6.2 °C 29.9in /  1014.0hPa SSO 4.4mph /  7.1km/h 6.9mph /  11.1km/h 64% 0in /  0.0mm
01:59 55 °F /  12.8 °C 43.2 °F /  6.2 °C 29.9in /  1013.8hPa SSO 4.3mph /  6.9km/h 7mph /  11.3km/h 64% 0in /  0.0mm
02:04 55 °F /  12.8 °C 43.2 °F /  6.2 °C 29.9in /  1013.8hPa SSO 4.3mph /  6.9km/h 8.1mph /  13km/h 64% 0in /  0.0mm
02:09 55 °F /  12.8 °C 43 °F /  6.1 °C 30in /  1014.3hPa SSO 4.3mph /  6.9km/h 8mph /  12.9km/h 63.5% 0in /  0.0mm
02:14 55 °F /  12.8 °C 42.8 °F /  6 °C 30in /  1014.3hPa SSO 4.6mph /  7.4km/h 7.4mph /  11.9km/h 63% 0in /  0.0mm
02:19 55.2 °F /  12.9 °C 42.8 °F /  6 °C 30in /  1014.3hPa SSO 4.7mph /  7.6km/h 7.4mph /  11.9km/h 63% 0in /  0.0mm
02:24 55.4 °F /  13 °C 42.6 °F /  5.9 °C 30in /  1014.3hPa SSO 4.7mph /  7.6km/h 8.1mph /  13km/h 62.3% 0in /  0.0mm
02:29 55.6 °F /  13.1 °C 42.8 °F /  6 °C 29.9in /  1014.0hPa Sur 4.7mph /  7.6km/h 8mph /  12.9km/h 62% 0in /  0.0mm
02:34 55.8 °F /  13.2 °C 42.8 °F /  6 °C 29.9in /  1014.0hPa Sur 4.7mph /  7.6km/h 8.5mph /  13.7km/h 61.8% 0in /  0.0mm
02:39 55.8 °F /  13.2 °C 42.8 °F /  6 °C 29.9in /  1014.0hPa SE 4.7mph /  7.6km/h 9mph /  14.5km/h 61.7% 0in /  0.0mm
02:44 55.6 °F /  13.1 °C 42.8 °F /  6 °C 29.9in /  1014.0hPa SE 3.9mph /  6.3km/h 6mph /  9.7km/h 62% 0in /  0.0mm
02:49 55.2 °F /  12.9 °C 42.8 °F /  6 °C 29.9in /  1014.0hPa Sur 3.6mph /  5.8km/h 6.2mph /  10km/h 62.9% 0in /  0.0mm
02:54 55.2 °F /  12.9 °C 42.8 °F /  6 °C 29.9in /  1014.0hPa Sur 3.9mph /  6.2km/h 6.9mph /  11.1km/h 63% 0in /  0.0mm
02:59 55 °F /  12.8 °C 42.8 °F /  6 °C 29.9in /  1013.9hPa SSE 4mph /  6.5km/h 7.4mph /  11.9km/h 63% 0in /  0.0mm
03:04 55 °F /  12.8 °C 42.6 °F /  5.9 °C 29.9in /  1013.9hPa SSE 4.8mph /  7.8km/h 7.4mph /  11.9km/h 63% 0in /  0.0mm
03:09 54.9 °F /  12.7 °C 42.6 °F /  5.9 °C 29.9in /  1013.9hPa SSE 5.2mph /  8.4km/h 7mph /  11.3km/h 63.6% 0in /  0.0mm
03:14 54.5 °F /  12.5 °C 42.6 °F /  5.9 °C 29.9in /  1013.9hPa Oeste 3.7mph /  6km/h 6mph /  9.7km/h 64.3% 0in /  0.0mm
03:19 54 °F /  12.2 °C 42.6 °F /  5.9 °C 29.9in /  1013.9hPa OSO 3.1mph /  5km/h 5mph /  8km/h 65.3% 0in /  0.0mm
03:24 53.8 °F /  12.1 °C 42.8 °F /  6 °C 29.9in /  1013.9hPa SO 3mph /  4.8km/h 5mph /  8km/h 66% 0in /  0.0mm
03:29 53.4 °F /  11.9 °C 42.6 °F /  5.9 °C 29.9in /  1013.7hPa NO 2.9mph /  4.7km/h 5mph /  8km/h 66.8% 0in /  0.0mm
03:34 52.9 °F /  11.6 °C 42.4 °F /  5.8 °C 29.9in /  1013.7hPa NO 2.9mph /  4.7km/h 6.2mph /  10km/h 68% 0in /  0.0mm
03:39 52.2 °F /  11.2 °C 42.4 °F /  5.8 °C 29.9in /  1013.9hPa ONO 2.9mph /  4.7km/h 6mph /  9.7km/h 69.4% 0in /  0.0mm
03:44 51.8 °F /  11 °C 42.4 °F /  5.8 °C 29.9in /  1013.9hPa OSO 2.5mph /  4.1km/h 4mph /  6.4km/h 70.2% 0in /  0.0mm
03:49 51.6 °F /  10.9 °C 42.4 °F /  5.8 °C 29.9in /  1013.9hPa ONO 2.4mph /  3.9km/h 4.7mph /  7.6km/h 71% 0in /  0.0mm
03:54 51.3 °F /  10.7 °C 42.3 °F /  5.7 °C 30in /  1014.2hPa NNO 2.1mph /  3.4km/h 5.9mph /  9.5km/h 71.5% 0in /  0.0mm
03:59 50.5 °F /  10.3 °C 42.3 °F /  5.7 °C 30in /  1014.2hPa NNO 2mph /  3.2km/h 6mph /  9.7km/h 72.9% 0in /  0.0mm
04:04 50.2 °F /  10.1 °C 42.3 °F /  5.7 °C 30in /  1014.2hPa NO 3.2mph /  5.1km/h 5.2mph /  8.4km/h 74.2% 0in /  0.0mm
04:09 50.2 °F /  10.1 °C 42.6 °F /  5.9 °C 30in /  1014.2hPa NO 3.6mph /  5.8km/h 5mph /  8km/h 75% 0in /  0.0mm
04:14 50.4 °F /  10.2 °C 42.6 °F /  5.9 °C 29.9in /  1014.1hPa Oeste 3.1mph /  5km/h 5mph /  8km/h 74.6% 0in /  0.0mm
04:19 50.7 °F /  10.4 °C 42.6 °F /  5.9 °C 29.9in /  1014.1hPa OSO 2.9mph /  4.7km/h 5.9mph /  9.5km/h 73.9% 0in /  0.0mm
04:24 51.4 °F /  10.8 °C 42.8 °F /  6 °C 30in /  1014.2hPa OSO 3.4mph /  5.4km/h 6.2mph /  10km/h 72.3% 0in /  0.0mm
04:29 52 °F /  11.1 °C 42.8 °F /  6 °C 30in /  1014.2hPa OSO 3.6mph /  5.8km/h 6.2mph /  10km/h 70.7% 0in /  0.0mm
04:34 52.3 °F /  11.3 °C 42.8 °F /  6 °C 30in /  1014.2hPa SO 3.9mph /  6.2km/h 6.2mph /  10km/h 69.5% 0in /  0.0mm
04:39 53.1 °F /  11.7 °C 42.8 °F /  6 °C 30in /  1014.2hPa OSO 4mph /  6.5km/h 6mph /  9.7km/h 68.3% 0in /  0.0mm
04:44 53.2 °F /  11.8 °C 42.6 °F /  5.9 °C 30in /  1014.2hPa OSO 3.7mph /  6km/h 5mph /  8km/h 67.2% 0in /  0.0mm
04:49 53.4 °F /  11.9 °C 42.6 °F /  5.9 °C 30in /  1014.2hPa Oeste 3.6mph /  5.8km/h 5.9mph /  9.5km/h 67% 0in /  0.0mm
04:54 53.4 °F /  11.9 °C 42.6 °F /  5.9 °C 30in /  1014.3hPa SO 3.6mph /  5.8km/h 6mph /  9.7km/h 67% 0in /  0.0mm
04:59 53.4 °F /  11.9 °C 42.6 °F /  5.9 °C 30in /  1014.3hPa OSO 3.6mph /  5.8km/h 6.2mph /  10km/h 66.8% 0in /  0.0mm
05:04 53.4 °F /  11.9 °C 42.3 °F /  5.7 °C 30in /  1014.3hPa OSO 3.9mph /  6.3km/h 7.4mph /  11.9km/h 66% 0in /  0.0mm
05:09 53.4 °F /  11.9 °C 42.3 °F /  5.7 °C 30in /  1014.4hPa OSO 4mph /  6.5km/h 7mph /  11.3km/h 66% 0in /  0.0mm
05:14 53.4 °F /  11.9 °C 42.4 °F /  5.8 °C 30in /  1014.4hPa SO 3.7mph /  6km/h 6mph /  9.7km/h 66.2% 0in /  0.0mm
05:19 53.4 °F /  11.9 °C 42.6 °F /  5.9 °C 30in /  1014.4hPa SO 3.6mph /  5.8km/h 5mph /  8km/h 67% 0in /  0.0mm
05:24 53.4 °F /  11.9 °C 42.6 °F /  5.9 °C 30in /  1014.4hPa SO 2.5mph /  4km/h 4mph /  6.4km/h 67% 0in /  0.0mm
05:29 53.4 °F /  11.9 °C 42.6 °F /  5.9 °C 30in /  1014.3hPa SO 2mph /  3.2km/h 3.6mph /  5.8km/h 67% 0in /  0.0mm
05:34 53.2 °F /  11.8 °C 42.6 °F /  5.9 °C 30in /  1014.3hPa Oeste 2mph /  3.2km/h 4.6mph /  7.4km/h 67% 0in /  0.0mm
05:39 53.1 °F /  11.7 °C 42.6 °F /  5.9 °C 30in /  1014.4hPa Oeste 2mph /  3.2km/h 5mph /  8km/h 67.6% 0in /  0.0mm
05:44 52.9 °F /  11.6 °C 42.6 °F /  5.9 °C 30in /  1014.4hPa OSO 2mph /  3.2km/h 5mph /  8km/h 68% 0in /  0.0mm
05:49 52.9 °F /  11.6 °C 42.6 °F /  5.9 °C 30in /  1014.4hPa OSO 2mph /  3.2km/h 5mph /  8km/h 68% 0in /  0.0mm
05:54 52.9 °F /  11.6 °C 42.6 °F /  5.9 °C 30in /  1014.5hPa OSO 1.9mph /  3km/h 4mph /  6.4km/h 68% 0in /  0.0mm
05:59 52.9 °F /  11.6 °C 42.6 °F /  5.9 °C 30in /  1014.5hPa OSO 1.8mph /  2.9km/h 2.4mph /  3.9km/h 68.3% 0in /  0.0mm
06:04 52.5 °F /  11.4 °C 42.6 °F /  5.9 °C 30in /  1014.5hPa OSO 0.5mph /  0.8km/h 2mph /  3.2km/h 69% 0in /  0.0mm
06:09 52.3 °F /  11.3 °C 42.8 °F /  6 °C 30in /  1014.5hPa Calm     69.8% 0in /  0.0mm
06:14 52.3 °F /  11.3 °C 43.2 °F /  6.2 °C 30in /  1014.4hPa Calm   2.9mph /  4.7km/h 70.7% 0in /  0.0mm
06:19 52.3 °F /  11.3 °C 43.2 °F /  6.2 °C 30in /  1014.4hPa Calm   4mph /  6.4km/h 71% 0in /  0.0mm
06:24 52.2 °F /  11.2 °C 42.8 °F /  6 °C 30in /  1014.5hPa SE 1.4mph /  2.2km/h 5.2mph /  8.4km/h 70.7% 0in /  0.0mm
06:29 51.6 °F /  10.9 °C 42.6 °F /  5.9 °C 30in /  1014.5hPa SE 2mph /  3.2km/h 5.2mph /  8.4km/h 71.4% 0in /  0.0mm
06:34 51.4 °F /  10.8 °C 42.6 °F /  5.9 °C 30in /  1014.5hPa SE 2.8mph /  4.5km/h 5mph /  8km/h 72% 0in /  0.0mm
06:39 51.4 °F /  10.8 °C 42.6 °F /  5.9 °C 30in /  1014.8hPa SE 3.1mph /  5km/h 5mph /  8km/h 72% 0in /  0.0mm
06:44 51.4 °F /  10.8 °C 42.6 °F /  5.9 °C 30in /  1014.8hPa SE 2.2mph /  3.5km/h 5mph /  8km/h 72% 0in /  0.0mm
06:49 51.4 °F /  10.8 °C 42.8 °F /  6 °C 30in /  1014.8hPa SSE 1.8mph /  2.9km/h 5mph /  8km/h 72% 0in /  0.0mm
06:54 51.6 °F /  10.9 °C 43 °F /  6.1 °C 30in /  1014.9hPa SO 2.5mph /  4.1km/h 5mph /  8km/h 72% 0in /  0.0mm
06:59 51.8 °F /  11 °C 43 °F /  6.1 °C 30in /  1014.9hPa OSO 2.9mph /  4.7km/h 5mph /  8km/h 71.7% 0in /  0.0mm
07:04 52 °F /  11.1 °C 43 °F /  6.1 °C 30in /  1014.9hPa OSO 2.5mph /  4.1km/h 5mph /  8km/h 71% 0in /  0.0mm
07:09 51.8 °F /  11 °C 42.8 °F /  6 °C 30in /  1015.3hPa Oeste 2.4mph /  3.9km/h 5mph /  8km/h 71.1% 0in /  0.0mm
07:14 51.6 °F /  10.9 °C 43 °F /  6.1 °C 30in /  1015.3hPa OSO 2.7mph /  4.4km/h 5.2mph /  8.4km/h 72% 0in /  0.0mm
07:19 51.6 °F /  10.9 °C 42.8 °F /  6 °C 30in /  1015.3hPa OSO 2.9mph /  4.7km/h 5.8mph /  9.3km/h 72% 0in /  0.0mm
07:24 51.6 °F /  10.9 °C 42.4 °F /  5.8 °C 30in /  1015.5hPa OSO 3mph /  4.9km/h 6mph /  9.7km/h 71% 0in /  0.0mm
07:29 51.6 °F /  10.9 °C 42.8 °F /  6 °C 30in /  1015.5hPa SO 3.1mph /  5km/h 5.2mph /  8.4km/h 71.5% 0in /  0.0mm
07:34 52 °F /  11.1 °C 43 °F /  6.1 °C 30in /  1015.5hPa SO 3mph /  4.8km/h 5mph /  8km/h 71% 0in /  0.0mm
07:39 52 °F /  11.1 °C 43 °F /  6.1 °C 30in /  1015.8hPa ESE 2.9mph /  4.7km/h 5.4mph /  8.7km/h 71% 0in /  0.0mm
07:44 51.3 °F /  10.7 °C 42.6 °F /  5.9 °C 30in /  1015.8hPa ESE 2.9mph /  4.7km/h 6mph /  9.7km/h 72.1% 0in /  0.0mm
07:49 50.7 °F /  10.4 °C 42.6 °F /  5.9 °C 30in /  1015.8hPa SE 2.9mph /  4.7km/h 6.2mph /  10km/h 73.4% 0in /  0.0mm
07:54 50.4 °F /  10.2 °C 42.6 °F /  5.9 °C 30in /  1016.1hPa SSE 2.9mph /  4.7km/h 6.2mph /  10km/h 74.7% 0in /  0.0mm
07:59 49.8 °F /  9.9 °C 42.6 °F /  5.9 °C 30in /  1016.1hPa Sur 2.9mph /  4.7km/h 6.2mph /  10km/h 75.8% 0in /  0.0mm
08:04 49.6 °F /  9.8 °C 42.4 °F /  5.8 °C 30in /  1016.1hPa SSE 3.7mph /  5.9km/h 6.2mph /  10km/h 76% 0in /  0.0mm
08:09 49.6 °F /  9.8 °C 42.4 °F /  5.8 °C 30in /  1016.2hPa Sur 4mph /  6.5km/h 8.1mph /  13km/h 76% 0in /  0.0mm
08:14 50.2 °F /  10.1 °C 42.8 °F /  6 °C 30in /  1016.2hPa SSO 4.8mph /  7.8km/h 8mph /  12.9km/h 75.6% 0in /  0.0mm
08:19 50.4 °F /  10.2 °C 42.8 °F /  6 °C 30in /  1016.2hPa SO 5.2mph /  8.4km/h 6mph /  9.7km/h 75% 0in /  0.0mm
08:24 50.5 °F /  10.3 °C 43 °F /  6.1 °C 30in /  1016.5hPa SO 3.7mph /  6km/h 6mph /  9.7km/h 74.8% 0in /  0.0mm
08:29 51.1 °F /  10.6 °C 43 °F /  6.1 °C 30in /  1016.5hPa OSO 3.1mph /  5km/h 5.8mph /  9.3km/h 74% 0in /  0.0mm
08:34 51.4 °F /  10.8 °C 43 °F /  6.1 °C 30in /  1016.5hPa Oeste 3.5mph /  5.6km/h 6mph /  9.7km/h 73.1% 0in /  0.0mm
08:39 51.4 °F /  10.8 °C 43.2 °F /  6.2 °C 30in /  1016.5hPa OSO 3.6mph /  5.8km/h 6mph /  9.7km/h 73% 0in /  0.0mm
08:44 51.6 °F /  10.9 °C 43 °F /  6.1 °C 30in /  1016.5hPa OSO 3.9mph /  6.2km/h 6.2mph /  10km/h 72.2% 0in /  0.0mm
08:49 52 °F /  11.1 °C 43.2 °F /  6.2 °C 30in /  1016.5hPa OSO 4mph /  6.5km/h 6mph /  9.7km/h 72% 0in /  0.0mm
08:54 52.2 °F /  11.2 °C 43.2 °F /  6.2 °C 30in /  1016.6hPa OSO 3.7mph /  6km/h 6mph /  9.7km/h 71.3% 0in /  0.0mm
08:59 52.5 °F /  11.4 °C 43.3 °F /  6.3 °C 30in /  1016.6hPa OSO 3.6mph /  5.8km/h 5mph /  8km/h 70.9% 0in /  0.0mm
09:04 53.1 °F /  11.7 °C 43.5 °F /  6.4 °C 30in /  1016.6hPa OSO 2.3mph /  3.7km/h 4mph /  6.4km/h 70% 0in /  0.0mm
09:09 53.4 °F /  11.9 °C 43.7 °F /  6.5 °C 30in /  1017.0hPa SO 1.8mph /  2.9km/h 4.7mph /  7.6km/h 69.8% 0in /  0.0mm
09:14 54 °F /  12.2 °C 43.7 °F /  6.5 °C 30in /  1017.0hPa Sur 1.9mph /  3.1km/h 5.8mph /  9.3km/h 68.3% 0in /  0.0mm
09:19 54.1 °F /  12.3 °C 43.9 °F /  6.6 °C 30in /  1017.0hPa Sur 2mph /  3.2km/h 6mph /  9.7km/h 68% 0in /  0.0mm
09:24 54.5 °F /  12.5 °C 43.9 °F /  6.6 °C 30in /  1017.1hPa SSO 2.6mph /  4.2km/h 6.2mph /  10km/h 66.9% 0in /  0.0mm
09:29 55 °F /  12.8 °C 43.9 °F /  6.6 °C 30in /  1017.1hPa SSO 2.9mph /  4.7km/h 6.2mph /  10km/h 66% 0in /  0.0mm
09:34 55.2 °F /  12.9 °C 43.9 °F /  6.6 °C 30in /  1017.1hPa SSO 3.7mph /  5.9km/h 6.2mph /  10km/h 65.6% 0in /  0.0mm
09:39 55.6 °F /  13.1 °C 43.9 °F /  6.6 °C 30in /  1017.2hPa SSO 4mph /  6.5km/h 6.9mph /  11.1km/h 64.8% 0in /  0.0mm
09:44 55.9 °F /  13.3 °C 43.9 °F /  6.6 °C 30in /  1017.2hPa Sur 4.2mph /  6.8km/h 7mph /  11.3km/h 63.9% 0in /  0.0mm
09:49 56.3 °F /  13.5 °C 43.9 °F /  6.6 °C 30in /  1017.2hPa Sur 4.3mph /  6.9km/h 8.1mph /  13km/h 63.1% 0in /  0.0mm
09:54 56.5 °F /  13.6 °C 44.1 °F /  6.7 °C 30in /  1017.3hPa Sur 4.6mph /  7.4km/h 8.1mph /  13km/h 63% 0in /  0.0mm
09:59 56.7 °F /  13.7 °C 44.2 °F /  6.8 °C 30in /  1017.3hPa Sur 4.7mph /  7.6km/h 8mph /  12.9km/h 63% 0in /  0.0mm
10:04 56.8 °F /  13.8 °C 44.4 °F /  6.9 °C 30in /  1017.3hPa Sur 4.7mph /  7.6km/h 7mph /  11.3km/h 63% 0in /  0.0mm
10:09 57 °F /  13.9 °C 44.6 °F /  7 °C 30in /  1017.4hPa SSO 4.7mph /  7.6km/h 7mph /  11.3km/h 63% 0in /  0.0mm
10:14 57.4 °F /  14.1 °C 44.8 °F /  7.1 °C 30in /  1017.4hPa SO 3.9mph /  6.3km/h 6mph /  9.7km/h 62.6% 0in /  0.0mm
10:19 57.7 °F /  14.3 °C 44.6 °F /  7 °C 30in /  1017.4hPa Sur 3.6mph /  5.8km/h 6.2mph /  10km/h 61.4% 0in /  0.0mm
10:24 58.5 °F /  14.7 °C 45.3 °F /  7.4 °C 30.1in /  1017.5hPa SSE 3.2mph /  5.2km/h 6mph /  9.7km/h 61.6% 0in /  0.0mm
10:29 58.8 °F /  14.9 °C 45.1 °F /  7.3 °C 30.1in /  1017.5hPa SSE 3.1mph /  5km/h 6.2mph /  10km/h 60.3% 0in /  0.0mm
10:34 58.8 °F /  14.9 °C 45 °F /  7.2 °C 30.1in /  1017.5hPa SSE 3.7mph /  6km/h 6.2mph /  10km/h 60% 0in /  0.0mm
10:39 59 °F /  15 °C 45.1 °F /  7.3 °C 30.1in /  1017.6hPa SSE 4mph /  6.5km/h 6mph /  9.7km/h 60% 0in /  0.0mm
10:44 59.4 °F /  15.2 °C 45.5 °F /  7.5 °C 30.1in /  1017.6hPa Sur 3.7mph /  6km/h 6mph /  9.7km/h 59.9% 0in /  0.0mm
10:49 59.5 °F /  15.3 °C 45.3 °F /  7.4 °C 30.1in /  1017.6hPa SO 3.6mph /  5.8km/h 5mph /  8km/h 59% 0in /  0.0mm
10:54 59.9 °F /  15.5 °C 45.7 °F /  7.6 °C 30.1in /  1017.8hPa SO 2.7mph /  4.4km/h 5mph /  8km/h 59% 0in /  0.0mm
10:59 60.4 °F /  15.8 °C 45.5 °F /  7.5 °C 30.1in /  1017.8hPa OSO 2.4mph /  3.9km/h 5.2mph /  8.4km/h 57.9% 0in /  0.0mm
11:04 61 °F /  16.1 °C 45.3 °F /  7.4 °C 30.1in /  1017.8hPa OSO 2.1mph /  3.4km/h 5.8mph /  9.3km/h 56.6% 0in /  0.0mm
11:09 61.3 °F /  16.3 °C 45.1 °F /  7.3 °C 30.1in /  1017.8hPa OSO 2mph /  3.2km/h 6.2mph /  10km/h 55.4% 0in /  0.0mm
11:14 61.7 °F /  16.5 °C 45.3 °F /  7.4 °C 30.1in /  1017.6hPa SO 3.1mph /  5km/h 6mph /  9.7km/h 54.9% 0in /  0.0mm
11:19 62.1 °F /  16.7 °C 45.5 °F /  7.5 °C 30.1in /  1017.6hPa OSO 3.6mph /  5.8km/h 6mph /  9.7km/h 54.7% 0in /  0.0mm
11:24 62.2 °F /  16.8 °C 45.5 °F /  7.5 °C 30.1in /  1017.6hPa Oeste 3.6mph /  5.8km/h 8.5mph /  13.7km/h 53.9% 0in /  0.0mm
11:29 62.6 °F /  17 °C 45.7 °F /  7.6 °C 30.1in /  1017.5hPa OSO 3.6mph /  5.8km/h 9mph /  14.5km/h 54% 0in /  0.0mm
11:34 63 °F /  17.2 °C 45.9 °F /  7.7 °C 30.1in /  1017.5hPa OSO 4.1mph /  6.6km/h 9.2mph /  14.8km/h 54% 0in /  0.0mm
11:39 63.1 °F /  17.3 °C 45.9 °F /  7.7 °C 30.1in /  1017.6hPa SO 4.3mph /  6.9km/h 9.2mph /  14.8km/h 53.5% 0in /  0.0mm
11:44 63.3 °F /  17.4 °C 45.9 °F /  7.7 °C 30.1in /  1017.6hPa SSO 4.1mph /  6.6km/h 9mph /  14.5km/h 53% 0in /  0.0mm
11:49 63.7 °F /  17.6 °C 46 °F /  7.8 °C 30.1in /  1017.6hPa OSO 4mph /  6.5km/h 6.9mph /  11.1km/h 52.4% 0in /  0.0mm
11:54 64 °F /  17.8 °C 45.7 °F /  7.6 °C 30.1in /  1017.6hPa OSO 3.2mph /  5.2km/h 7mph /  11.3km/h 51.6% 0in /  0.0mm
11:59 64.2 °F /  17.9 °C 45.7 °F /  7.6 °C 30in /  1017.4hPa Sur 2.9mph /  4.7km/h 7mph /  11.3km/h 51.1% 0in /  0.0mm
12:04 64.4 °F /  18 °C 45.5 °F /  7.5 °C 30in /  1017.4hPa Oeste 3.4mph /  5.5km/h 7mph /  11.3km/h 50.4% 0in /  0.0mm
12:09 64.6 °F /  18.1 °C 45.5 °F /  7.5 °C 30in /  1017.4hPa ONO 3.6mph /  5.8km/h 7mph /  11.3km/h 50.1% 0in /  0.0mm
12:14 64.9 °F /  18.3 °C 45.9 °F /  7.7 °C 30in /  1017.1hPa SO 2.5mph /  4km/h 6.2mph /  10km/h 50% 0in /  0.0mm
12:19 64.9 °F /  18.3 °C 45.9 °F /  7.7 °C 30in /  1017.1hPa Oeste 2mph /  3.2km/h 8.7mph /  14km/h 50% 0in /  0.0mm
12:24 65.1 °F /  18.4 °C 45.7 °F /  7.6 °C 30in /  1017.1hPa SO 3.4mph /  5.5km/h 9.2mph /  14.8km/h 49.2% 0in /  0.0mm
12:29 65.1 °F /  18.4 °C 45.7 °F /  7.6 °C 30in /  1017.0hPa SO 4mph /  6.5km/h 7mph /  11.3km/h 49.2% 0in /  0.0mm
12:34 65.1 °F /  18.4 °C 45.5 °F /  7.5 °C 30in /  1017.0hPa OSO 4mph /  6.5km/h 6mph /  9.7km/h 49% 0in /  0.0mm
12:39 65.7 °F /  18.7 °C 45.7 °F /  7.6 °C 30in /  1017.0hPa OSO 4mph /  6.5km/h 6.9mph /  11.1km/h 48.7% 0in /  0.0mm
12:44 65.7 °F /  18.7 °C 45.9 °F /  7.7 °C 30in /  1016.4hPa OSO 2.9mph /  4.7km/h 7mph /  11.3km/h 48.7% 0in /  0.0mm
12:49 65.8 °F /  18.8 °C 45.9 °F /  7.7 °C 30in /  1016.4hPa SO 2.4mph /  3.9km/h 8.1mph /  13km/h 48.5% 0in /  0.0mm
12:54 65.8 °F /  18.8 °C 45.7 °F /  7.6 °C 30in /  1016.5hPa SSO 4mph /  6.4km/h 8.1mph /  13km/h 48.1% 0in /  0.0mm
12:59 65.8 °F /  18.8 °C 45.9 °F /  7.7 °C 30in /  1016.5hPa OSO 4.7mph /  7.6km/h 8mph /  12.9km/h 48.3% 0in /  0.0mm
13:04 66.4 °F /  19.1 °C 46 °F /  7.8 °C 30in /  1016.5hPa SSE 3.5mph /  5.7km/h 6mph /  9.7km/h 48% 0in /  0.0mm
13:09 66.6 °F /  19.2 °C 46.2 °F /  7.9 °C 30in /  1016.5hPa SE 3.1mph /  5km/h 6mph /  9.7km/h 48% 0in /  0.0mm
13:14 66.7 °F /  19.3 °C 46 °F /  7.8 °C 30in /  1016.2hPa OSO 3mph /  4.8km/h 5.9mph /  9.5km/h 47.2% 0in /  0.0mm
13:19 66.7 °F /  19.3 °C 45.9 °F /  7.7 °C 30in /  1016.2hPa OSO 2.9mph /  4.7km/h 6mph /  9.7km/h 47% 0in /  0.0mm
13:24 66.7 °F /  19.3 °C 45.9 °F /  7.7 °C 30in /  1016.2hPa SSO 3mph /  4.9km/h 6.9mph /  11.1km/h 47% 0in /  0.0mm
13:29 66.9 °F /  19.4 °C 45.7 °F /  7.6 °C 30in /  1016.1hPa SE 3.1mph /  5km/h 7mph /  11.3km/h 46.6% 0in /  0.0mm
13:34 66.9 °F /  19.4 °C 45.7 °F /  7.6 °C 30in /  1016.1hPa SE 3mph /  4.8km/h 5.8mph /  9.3km/h 46.2% 0in /  0.0mm
13:39 67.3 °F /  19.6 °C 45.7 °F /  7.6 °C 30in /  1016.1hPa SE 2.9mph /  4.7km/h 6mph /  9.7km/h 46% 0in /  0.0mm
13:44 67.1 °F /  19.5 °C 45.5 °F /  7.5 °C 30in /  1015.9hPa SSE 3mph /  4.9km/h 8.5mph /  13.7km/h 46% 0in /  0.0mm
13:49 66.9 °F /  19.4 °C 46 °F /  7.8 °C 30in /  1015.9hPa SSO 3.1mph /  5km/h 9mph /  14.5km/h 47% 0in /  0.0mm
13:54 67.1 °F /  19.5 °C 46 °F /  7.8 °C 30in /  1015.9hPa Sur 2.6mph /  4.2km/h 5.8mph /  9.3km/h 46.6% 0in /  0.0mm
13:59 67.3 °F /  19.6 °C 45.9 °F /  7.7 °C 30in /  1015.7hPa Sur 2.4mph /  3.9km/h 6.9mph /  11.1km/h 46% 0in /  0.0mm
14:04 67.3 °F /  19.6 °C 45.9 °F /  7.7 °C 30in /  1015.7hPa SO 3.8mph /  6.1km/h 7mph /  11.3km/h 46% 0in /  0.0mm
14:09 67.5 °F /  19.7 °C 45.9 °F /  7.7 °C 30in /  1015.7hPa SSO 4.3mph /  6.9km/h 6mph /  9.7km/h 45.8% 0in /  0.0mm
14:14 67.6 °F /  19.8 °C 45.7 °F /  7.6 °C 30in /  1015.5hPa SSO 2.7mph /  4.3km/h 5mph /  8km/h 45% 0in /  0.0mm
14:19 68 °F /  20 °C 45.9 °F /  7.7 °C 30in /  1015.5hPa SO 2mph /  3.2km/h 6.2mph /  10km/h 45% 0in /  0.0mm
14:24 68.2 °F /  20.1 °C 46 °F /  7.8 °C 30in /  1015.5hPa OSO 2mph /  3.2km/h 6mph /  9.7km/h 45% 0in /  0.0mm
14:29 68.2 °F /  20.1 °C 45.9 °F /  7.7 °C 30in /  1015.3hPa OSO 2mph /  3.2km/h 5mph /  8km/h 44.8% 0in /  0.0mm
14:34 68.4 °F /  20.2 °C 45.9 °F /  7.7 °C 30in /  1015.3hPa OSO 1.9mph /  3km/h 4mph /  6.4km/h 44.6% 0in /  0.0mm
14:39 68.4 °F /  20.2 °C 46 °F /  7.8 °C 30in /  1015.3hPa ESE 1.8mph /  2.9km/h 5mph /  8km/h 44.7% 0in /  0.0mm
14:44 68.5 °F /  20.3 °C 45.9 °F /  7.7 °C 30in /  1015.0hPa SE 1.8mph /  2.9km/h 5.2mph /  8.4km/h 44.1% 0in /  0.0mm
14:49 68.5 °F /  20.3 °C 45.9 °F /  7.7 °C 30in /  1015.0hPa Sur 1.8mph /  2.9km/h 5.2mph /  8.4km/h 44% 0in /  0.0mm
14:54 68.4 °F /  20.2 °C 45.7 °F /  7.6 °C 30in /  1015.0hPa SO 2.7mph /  4.4km/h 5mph /  8km/h 44.4% 0in /  0.0mm
14:59 68.2 °F /  20.1 °C 46 °F /  7.8 °C 30in /  1014.8hPa Oeste 3.1mph /  5km/h 5mph /  8km/h 45% 0in /  0.0mm
15:04 68.2 °F /  20.1 °C 46 °F /  7.8 °C 30in /  1014.8hPa OSO 3mph /  4.8km/h 5.9mph /  9.5km/h 45% 0in /  0.0mm
15:09 68.4 °F /  20.2 °C 46.2 °F /  7.9 °C 30in /  1014.8hPa SSO 2.9mph /  4.7km/h 6mph /  9.7km/h 45% 0in /  0.0mm
15:14 68.5 °F /  20.3 °C 46 °F /  7.8 °C 30in /  1014.7hPa SO 2.2mph /  3.6km/h 5.9mph /  9.5km/h 44.5% 0in /  0.0mm
15:19 68.7 °F /  20.4 °C 46 °F /  7.8 °C 30in /  1014.7hPa NO 2mph /  3.2km/h 6mph /  9.7km/h 44.4% 0in /  0.0mm
15:24 68.7 °F /  20.4 °C 46 °F /  7.8 °C 30in /  1014.7hPa NNE 2mph /  3.2km/h 5.8mph /  9.3km/h 44.3% 0in /  0.0mm
15:29 68.7 °F /  20.4 °C 46.2 °F /  7.9 °C 30in /  1014.6hPa ONO 2mph /  3.2km/h 6mph /  9.7km/h 44.5% 0in /  0.0mm
15:34 68.7 °F /  20.4 °C 46.6 °F /  8.1 °C 30in /  1014.6hPa NNO 2.3mph /  3.7km/h 6mph /  9.7km/h 45% 0in /  0.0mm
15:39 69.1 °F /  20.6 °C 46.8 °F /  8.2 °C 30in /  1014.6hPa North 2.4mph /  3.9km/h 5mph /  8km/h 45% 0in /  0.0mm
15:44 69.3 °F /  20.7 °C 46.9 °F /  8.3 °C 30in /  1014.6hPa North 2mph /  3.2km/h 3mph /  4.8km/h 44.9% 0in /  0.0mm
15:49 69.4 °F /  20.8 °C 46.6 °F /  8.1 °C 30in /  1014.6hPa ONO 1.8mph /  2.9km/h 4.7mph /  7.6km/h 44% 0in /  0.0mm
15:54 69.4 °F /  20.8 °C 46.6 °F /  8.1 °C 30in /  1014.6hPa Oeste 1.9mph /  3.1km/h 5mph /  8km/h 44% 0in /  0.0mm
15:59 69.4 °F /  20.8 °C 46.8 °F /  8.2 °C 30in /  1014.6hPa NO 2mph /  3.2km/h 3.5mph /  5.6km/h 44.2% 0in /  0.0mm
16:04 69.4 °F /  20.8 °C 46.6 °F /  8.1 °C 30in /  1014.6hPa Este 1.6mph /  2.5km/h 3mph /  4.8km/h 44% 0in /  0.0mm
16:09 69.6 °F /  20.9 °C 46.8 °F /  8.2 °C 30in /  1014.6hPa SSE 1.4mph /  2.2km/h 3.5mph /  5.6km/h 44% 0in /  0.0mm
16:14 69.8 °F /  21 °C 46.9 °F /  8.3 °C 30in /  1014.6hPa SSO 1.7mph /  2.7km/h 4mph /  6.4km/h 44% 0in /  0.0mm
16:19 69.6 °F /  20.9 °C 46.8 °F /  8.2 °C 30in /  1014.6hPa SSO 1.8mph /  2.9km/h 4mph /  6.4km/h 44% 0in /  0.0mm
16:24 69.6 °F /  20.9 °C 46.8 °F /  8.2 °C 30in /  1014.7hPa SSO 1.5mph /  2.4km/h 2mph /  3.2km/h 44% 0in /  0.0mm
16:29 69.4 °F /  20.8 °C 47.1 °F /  8.4 °C 30in /  1014.7hPa SSO 1.4mph /  2.2km/h 2.3mph /  3.7km/h 44.9% 0in /  0.0mm
16:34 69.4 °F /  20.8 °C 47.1 °F /  8.4 °C 30in /  1014.7hPa SSO 0.4mph /  0.6km/h 2.4mph /  3.9km/h 44.9% 0in /  0.0mm
16:39 69.3 °F /  20.7 °C 47.1 °F /  8.4 °C 30in /  1014.7hPa Calm   2.3mph /  3.7km/h 45% 0in /  0.0mm
16:44 69.3 °F /  20.7 °C 46.9 °F /  8.3 °C 30in /  1014.7hPa ESE 0.9mph /  1.5km/h 4.6mph /  7.4km/h 45% 0in /  0.0mm
16:49 68.9 °F /  20.5 °C 46.9 °F /  8.3 °C 30in /  1014.7hPa ESE 1.4mph /  2.2km/h 5mph /  8km/h 45.3% 0in /  0.0mm
16:54 68.5 °F /  20.3 °C 46.9 °F /  8.3 °C 30in /  1014.7hPa ESE 1.8mph /  2.9km/h 4mph /  6.4km/h 46% 0in /  0.0mm
16:59 68.4 °F /  20.2 °C 47.3 °F /  8.5 °C 30in /  1014.6hPa Este 2mph /  3.2km/h 4mph /  6.4km/h 46.8% 0in /  0.0mm
17:04 68.4 °F /  20.2 °C 47.3 °F /  8.5 °C 30in /  1014.6hPa Este 2mph /  3.2km/h 4mph /  6.4km/h 47% 0in /  0.0mm
17:09 68.4 °F /  20.2 °C 47.3 °F /  8.5 °C 30in /  1014.7hPa Este 2mph /  3.2km/h 2mph /  3.2km/h 46.9% 0in /  0.0mm
17:14 68.4 °F /  20.2 °C 47.3 °F /  8.5 °C 30in /  1014.7hPa Este 0.6mph /  0.9km/h   47% 0in /  0.0mm
17:19 68.4 °F /  20.2 °C 47.3 °F /  8.5 °C 30in /  1014.7hPa Calm     47% 0in /  0.0mm
17:24 68.2 °F /  20.1 °C 47.5 °F /  8.6 °C 30in /  1014.8hPa Calm     47.5% 0in /  0.0mm
17:29 68 °F /  20 °C 47.7 °F /  8.7 °C 30in /  1014.8hPa Calm     48% 0in /  0.0mm
17:34 67.8 °F /  19.9 °C 47.5 °F /  8.6 °C 30in /  1014.8hPa Calm     48% 0in /  0.0mm
17:39 67.6 °F /  19.8 °C 47.1 °F /  8.4 °C 30in /  1014.9hPa Calm     48% 0in /  0.0mm
17:44 67.5 °F /  19.7 °C 47.5 °F /  8.6 °C 30in /  1014.9hPa Calm     48.7% 0in /  0.0mm
17:49 67.3 °F /  19.6 °C 47.5 °F /  8.6 °C 30in /  1014.9hPa Calm     49% 0in /  0.0mm
17:54 67.1 °F /  19.5 °C 47.5 °F /  8.6 °C 30in /  1014.9hPa Calm   2.9mph /  4.7km/h 49.4% 0in /  0.0mm
17:59 66.7 °F /  19.3 °C 48.4 °F /  9.1 °C 30in /  1014.8hPa Calm   5.2mph /  8.4km/h 51.4% 0in /  0.0mm
18:04 66.2 °F /  19 °C 48.7 °F /  9.3 °C 30in /  1014.8hPa ESE 1.7mph /  2.8km/h 5.2mph /  8.4km/h 53.4% 0in /  0.0mm
18:09 65.7 °F /  18.7 °C 49.3 °F /  9.6 °C 30in /  1014.9hPa SE 2.4mph /  3.9km/h 5mph /  8km/h 55.4% 0in /  0.0mm
18:14 65.3 °F /  18.5 °C 49.6 °F /  9.8 °C 30in /  1014.9hPa SE 2.9mph /  4.6km/h 5.2mph /  8.4km/h 56.9% 0in /  0.0mm
18:19 64.9 °F /  18.3 °C 50 °F /  10 °C 30in /  1014.9hPa ESE 3.1mph /  5km/h 5.2mph /  8.4km/h 58.5% 0in /  0.0mm
18:24 64.6 °F /  18.1 °C 50.2 °F /  10.1 °C 30in /  1015.1hPa ESE 3.1mph /  5km/h 5.9mph /  9.5km/h 59.6% 0in /  0.0mm
18:29 64 °F /  17.8 °C 50.2 °F /  10.1 °C 30in /  1015.1hPa SE 3.1mph /  5km/h 6.9mph /  11.1km/h 61.1% 0in /  0.0mm
18:34 63.5 °F /  17.5 °C 50.4 °F /  10.2 °C 30in /  1015.1hPa SE 3.7mph /  6km/h 7mph /  11.3km/h 62.3% 0in /  0.0mm
18:39 63.1 °F /  17.3 °C 50.2 °F /  10.1 °C 30in /  1015.2hPa SE 4mph /  6.5km/h 6mph /  9.7km/h 63% 0in /  0.0mm
18:44 62.8 °F /  17.1 °C 50.5 °F /  10.3 °C 30in /  1015.2hPa SE 4mph /  6.5km/h 6.9mph /  11.1km/h 64% 0in /  0.0mm
18:49 62.4 °F /  16.9 °C 50.2 °F /  10.1 °C 30in /  1015.2hPa SE 4mph /  6.5km/h 8.1mph /  13km/h 64.3% 0in /  0.0mm
18:54 62.2 °F /  16.8 °C 50.4 °F /  10.2 °C 30in /  1015.2hPa SE 4.5mph /  7.2km/h 8mph /  12.9km/h 65% 0in /  0.0mm
18:59 62.2 °F /  16.8 °C 50.4 °F /  10.2 °C 30in /  1015.2hPa SSE 4.7mph /  7.6km/h 7mph /  11.3km/h 65% 0in /  0.0mm
19:04 62.2 °F /  16.8 °C 50.7 °F /  10.4 °C 30in /  1015.2hPa SSE 4.7mph /  7.6km/h 8.1mph /  13km/h 65.5% 0in /  0.0mm
19:09 62.2 °F /  16.8 °C 50.9 °F /  10.5 °C 30in /  1015.3hPa Sur 4.7mph /  7.6km/h 8mph /  12.9km/h 66.3% 0in /  0.0mm
19:14 62.2 °F /  16.8 °C 51.1 °F /  10.6 °C 30in /  1015.3hPa SSO 4.7mph /  7.6km/h 7mph /  11.3km/h 67% 0in /  0.0mm
19:19 62.1 °F /  16.7 °C 51.1 °F /  10.6 °C 30in /  1015.3hPa SSO 4.7mph /  7.6km/h 7mph /  11.3km/h 67.2% 0in /  0.0mm
19:24 62.1 °F /  16.7 °C 51.4 °F /  10.8 °C 30in /  1015.5hPa SO 3.9mph /  6.3km/h 8.1mph /  13km/h 68% 0in /  0.0mm
19:29 62.1 °F /  16.7 °C 51.3 °F /  10.7 °C 30in /  1015.5hPa SO 3.6mph /  5.8km/h 8mph /  12.9km/h 68% 0in /  0.0mm
19:34 61.9 °F /  16.6 °C 51.1 °F /  10.6 °C 30in /  1015.5hPa OSO 4.1mph /  6.6km/h 9.2mph /  14.8km/h 68% 0in /  0.0mm
19:39 61.3 °F /  16.3 °C 51.1 °F /  10.6 °C 30in /  1015.6hPa OSO 4.3mph /  6.9km/h 9mph /  14.5km/h 68.8% 0in /  0.0mm
19:44 61 °F /  16.1 °C 51.1 °F /  10.6 °C 30in /  1015.6hPa SO 5mph /  8km/h 9.7mph /  15.6km/h 70.1% 0in /  0.0mm
19:49 60.6 °F /  15.9 °C 51.3 °F /  10.7 °C 30in /  1015.6hPa SO 5.2mph /  8.4km/h 10mph /  16.1km/h 71% 0in /  0.0mm
19:54 60.6 °F /  15.9 °C 51.3 °F /  10.7 °C 30in /  1015.7hPa SO 5.7mph /  9.1km/h 9.2mph /  14.8km/h 71% 0in /  0.0mm
19:59 60.6 °F /  15.9 °C 50.9 °F /  10.5 °C 30in /  1015.7hPa NO 5.9mph /  9.5km/h 9mph /  14.5km/h 70% 0in /  0.0mm
20:04 60.3 °F /  15.7 °C 50.9 °F /  10.5 °C 30in /  1015.7hPa NO 3.8mph /  6.1km/h 5mph /  8km/h 71% 0in /  0.0mm
20:09 59.7 °F /  15.4 °C 50.5 °F /  10.3 °C 30in /  1015.8hPa NO 3.1mph /  5km/h 5mph /  8km/h 71.7% 0in /  0.0mm
20:14 59.4 °F /  15.2 °C 50.5 °F /  10.3 °C 30in /  1015.8hPa NO 2.4mph /  3.8km/h 4mph /  6.4km/h 72.5% 0in /  0.0mm
20:19 59 °F /  15 °C 50.5 °F /  10.3 °C 30in /  1015.8hPa ESE 2mph /  3.2km/h 5.9mph /  9.5km/h 73.6% 0in /  0.0mm
20:24 58.6 °F /  14.8 °C 50.5 °F /  10.3 °C 30in /  1015.9hPa SSE 2.7mph /  4.3km/h 6.9mph /  11.1km/h 74.5% 0in /  0.0mm
20:29 58.6 °F /  14.8 °C 50.7 °F /  10.4 °C 30in /  1015.9hPa Sur 2.9mph /  4.7km/h 7.4mph /  11.9km/h 75% 0in /  0.0mm
20:34 58.5 °F /  14.7 °C 50.5 °F /  10.3 °C 30in /  1015.9hPa Sur 3.9mph /  6.3km/h 7mph /  11.3km/h 75% 0in /  0.0mm
20:39 58.3 °F /  14.6 °C 50.7 °F /  10.4 °C 30in /  1016.2hPa SSO 4.3mph /  6.9km/h 7mph /  11.3km/h 75.9% 0in /  0.0mm
20:44 58.1 °F /  14.5 °C 50.5 °F /  10.3 °C 30in /  1016.2hPa SSO 4.1mph /  6.6km/h 7mph /  11.3km/h 76% 0in /  0.0mm
20:49 58.3 °F /  14.6 °C 50.7 °F /  10.4 °C 30in /  1016.2hPa SSO 4mph /  6.5km/h 6mph /  9.7km/h 76% 0in /  0.0mm
20:54 58.3 °F /  14.6 °C 50.7 °F /  10.4 °C 30in /  1016.4hPa SSO 3.4mph /  5.4km/h 6mph /  9.7km/h 76% 0in /  0.0mm
20:59 58.5 °F /  14.7 °C 50.7 °F /  10.4 °C 30in /  1016.4hPa Sur 3.1mph /  5km/h 5mph /  8km/h 75.3% 0in /  0.0mm
21:04 58.3 °F /  14.6 °C 50.4 °F /  10.2 °C 30in /  1016.4hPa Sur 3.1mph /  5km/h 5.9mph /  9.5km/h 75% 0in /  0.0mm
21:09 58.3 °F /  14.6 °C 50.4 °F /  10.2 °C 30in /  1016.4hPa Sur 3.1mph /  5km/h 6mph /  9.7km/h 75% 0in /  0.0mm
21:14 58.3 °F /  14.6 °C 50.2 °F /  10.1 °C 30in /  1016.4hPa Sur 3.5mph /  5.6km/h 5.2mph /  8.4km/h 74.3% 0in /  0.0mm
21:19 58.5 °F /  14.7 °C 50.2 °F /  10.1 °C 30in /  1016.4hPa Sur 3.6mph /  5.8km/h 5mph /  8km/h 74% 0in /  0.0mm
21:24 58.5 °F /  14.7 °C 50 °F /  10 °C 30in /  1016.6hPa Sur 3.2mph /  5.2km/h 5.8mph /  9.3km/h 73.7% 0in /  0.0mm
21:29 58.5 °F /  14.7 °C 49.8 °F /  9.9 °C 30in /  1016.6hPa Sur 3.1mph /  5km/h 8.1mph /  13km/h 73% 0in /  0.0mm
21:34 58.5 °F /  14.7 °C 50 °F /  10 °C 30in /  1016.6hPa Sur 3.7mph /  6km/h 8mph /  12.9km/h 73.3% 0in /  0.0mm
21:39 58.5 °F /  14.7 °C 50 °F /  10 °C 30in /  1016.6hPa SSE 4mph /  6.5km/h 8.1mph /  13km/h 74% 0in /  0.0mm
21:44 58.3 °F /  14.6 °C 50 °F /  10 °C 30in /  1016.6hPa Sur 4.5mph /  7.3km/h 9.7mph /  15.6km/h 74% 0in /  0.0mm
21:49 58.3 °F /  14.6 °C 49.8 °F /  9.9 °C 30in /  1016.6hPa Sur 4.7mph /  7.6km/h 10mph /  16.1km/h 73.5% 0in /  0.0mm
21:54 58.3 °F /  14.6 °C 49.6 °F /  9.8 °C 30in /  1016.7hPa Sur 5.2mph /  8.4km/h 9mph /  14.5km/h 73% 0in /  0.0mm
21:59 58.3 °F /  14.6 °C 49.6 °F /  9.8 °C 30in /  1016.7hPa Sur 5.4mph /  8.7km/h 9mph /  14.5km/h 73% 0in /  0.0mm
22:04 58.3 °F /  14.6 °C 49.6 °F /  9.8 °C 30in /  1016.7hPa Sur 5.3mph /  8.5km/h 9mph /  14.5km/h 72.8% 0in /  0.0mm
22:09 58.3 °F /  14.6 °C 49.3 °F /  9.6 °C 30in /  1017.0hPa Sur 5.2mph /  8.4km/h 9mph /  14.5km/h 72% 0in /  0.0mm
22:14 58.3 °F /  14.6 °C 49.3 °F /  9.6 °C 30in /  1017.0hPa Sur 4.6mph /  7.4km/h 6.9mph /  11.1km/h 72% 0in /  0.0mm
22:19 58.1 °F /  14.5 °C 49.1 °F /  9.5 °C 30in /  1017.0hPa SSO 4.3mph /  6.9km/h 7mph /  11.3km/h 72% 0in /  0.0mm
22:24 57.9 °F /  14.4 °C 48.9 °F /  9.4 °C 30in /  1017.3hPa SSO 4.1mph /  6.6km/h 6mph /  9.7km/h 72% 0in /  0.0mm
22:29 57.9 °F /  14.4 °C 48.9 °F /  9.4 °C 30in /  1017.3hPa SO 4mph /  6.5km/h 5.4mph /  8.7km/h 72% 0in /  0.0mm
22:34 57.9 °F /  14.4 °C 48.9 °F /  9.4 °C 30in /  1017.3hPa SSO 3.7mph /  6km/h 6.9mph /  11.1km/h 72% 0in /  0.0mm
22:39 57.9 °F /  14.4 °C 48.7 °F /  9.3 °C 30.1in /  1017.5hPa SO 3.6mph /  5.8km/h 8.5mph /  13.7km/h 71.7% 0in /  0.0mm
22:44 57.9 °F /  14.4 °C 48.6 °F /  9.2 °C 30.1in /  1017.5hPa SO 4.3mph /  7km/h 9mph /  14.5km/h 71% 0in /  0.0mm
22:49 57.9 °F /  14.4 °C 48.2 °F /  9 °C 30.1in /  1017.5hPa SO 4.7mph /  7.6km/h 8.1mph /  13km/h 70% 0in /  0.0mm
22:54 57.9 °F /  14.4 °C 48.2 °F /  9 °C 30.1in /  1017.5hPa SO 5mph /  8.1km/h 8.1mph /  13km/h 70% 0in /  0.0mm
22:59 57.7 °F /  14.3 °C 48 °F /  8.9 °C 30.1in /  1017.5hPa SO 5.2mph /  8.4km/h 8.1mph /  13km/h 70% 0in /  0.0mm
23:04 57.7 °F /  14.3 °C 47.7 °F /  8.7 °C 30.1in /  1017.5hPa SO 5.3mph /  8.6km/h 9.2mph /  14.8km/h 69.1% 0in /  0.0mm
23:09 57.7 °F /  14.3 °C 47.7 °F /  8.7 °C 30.1in /  1017.6hPa SO 5.4mph /  8.7km/h 9.2mph /  14.8km/h 69% 0in /  0.0mm
23:14 57.9 °F /  14.4 °C 47.5 °F /  8.6 °C 30.1in /  1017.6hPa SO 5.8mph /  9.3km/h 9.2mph /  14.8km/h 68% 0in /  0.0mm
23:19 57.9 °F /  14.4 °C 47.1 °F /  8.4 °C 30.1in /  1017.6hPa SO 5.9mph /  9.5km/h 9.7mph /  15.6km/h 67.4% 0in /  0.0mm
23:24 57.9 °F /  14.4 °C 47.1 °F /  8.4 °C 30.1in /  1017.6hPa SO 5.9mph /  9.5km/h 10mph /  16.1km/h 67% 0in /  0.0mm
23:29 57.9 °F /  14.4 °C 47.1 °F /  8.4 °C 30.1in /  1017.5hPa SSO 5.9mph /  9.5km/h 10.4mph /  16.7km/h 67% 0in /  0.0mm
23:34 57.9 °F /  14.4 °C 46.9 °F /  8.3 °C 30.1in /  1017.5hPa SO 6.1mph /  9.8km/h 10.4mph /  16.7km/h 67% 0in /  0.0mm
23:39 57.7 °F /  14.3 °C 46.9 °F /  8.3 °C 30.1in /  1017.5hPa SSO 6.2mph /  10km/h 11.5mph /  18.5km/h 67% 0in /  0.0mm
23:44 57.7 °F /  14.3 °C 46.9 °F /  8.3 °C 30.1in /  1017.5hPa SO 6mph /  9.6km/h 12mph /  19.3km/h 67% 0in /  0.0mm
23:49 57.7 °F /  14.3 °C 46.8 °F /  8.2 °C 30.1in /  1017.5hPa SO 5.9mph /  9.5km/h 10.4mph /  16.7km/h 67% 0in /  0.0mm
23:54 57.9 °F /  14.4 °C 46.6 °F /  8.1 °C 30.1in /  1017.7hPa SSO 5.4mph /  8.7km/h 10mph /  16.1km/h 66% 0in /  0.0mm
23:59 58.1 °F /  14.5 °C 46.8 °F /  8.2 °C 30.1in /  1017.7hPa SSO 5.2mph /  8.4km/h 9.2mph /  14.8km/h 65.7% 0in /  0.0mm
Murcia-Puente Tocinos, España
Compliments of Weather Underground - 3 mb

La estación de MeteoMurcia.com, publica sus datos en los siguientes proyectos:

Weather Underground PWS IMURCIAP2 Meteoclimatic www.awekas.at

W3Counter
Web Analytics